createdAt,value
2017-09-17T00:01:35.658Z,11.23
2017-09-17T00:04:03.195Z,10.38
2017-09-17T00:06:30.707Z,10.20
2017-09-17T00:08:58.236Z,9.88
2017-09-17T00:11:26.146Z,10.48
2017-09-17T00:13:53.662Z,9.80
2017-09-17T00:16:21.184Z,9.95
2017-09-17T00:18:49.508Z,10.50
2017-09-17T00:21:17.036Z,9.15
2017-09-17T00:23:44.541Z,9.98
2017-09-17T00:26:12.085Z,10.27
2017-09-17T00:28:39.597Z,10.63
2017-09-17T00:31:07.898Z,9.50
2017-09-17T00:33:35.482Z,10.07
2017-09-17T00:36:03.002Z,8.52
2017-09-17T00:38:30.521Z,9.35
2017-09-17T00:40:58.070Z,9.60
2017-09-17T00:43:25.623Z,10.45
2017-09-17T00:45:53.147Z,10.80
2017-09-17T00:48:20.712Z,10.15
2017-09-17T00:50:48.232Z,10.13
2017-09-17T00:53:16.521Z,9.77
2017-09-17T00:55:44.847Z,10.38
2017-09-17T00:58:12.353Z,10.15
2017-09-17T01:00:40.685Z,10.30
2017-09-17T01:03:08.236Z,10.00
2017-09-17T01:05:35.783Z,11.40
2017-09-17T01:08:03.297Z,11.93
2017-09-17T01:10:30.841Z,10.55
2017-09-17T01:12:58.348Z,11.30
2017-09-17T01:15:25.875Z,12.32
2017-09-17T01:17:53.435Z,12.40
2017-09-17T01:20:21.743Z,14.52
2017-09-17T01:22:49.309Z,12.00
2017-09-17T01:25:16.850Z,13.30
2017-09-17T01:27:45.139Z,13.35
2017-09-17T01:30:12.664Z,13.90
2017-09-17T01:32:40.197Z,13.20
2017-09-17T01:35:07.711Z,14.10
2017-09-17T01:37:35.235Z,14.13
2017-09-17T01:40:02.767Z,13.55
2017-09-17T01:42:30.272Z,13.35
2017-09-17T01:44:58.571Z,12.80
2017-09-17T01:47:26.115Z,12.60
2017-09-17T01:49:54.388Z,12.07
2017-09-17T01:52:22.666Z,11.70
2017-09-17T01:54:50.963Z,11.50
2017-09-17T01:57:18.487Z,11.95
2017-09-17T01:59:46.779Z,11.85
2017-09-17T02:02:15.088Z,11.40
2017-09-17T02:04:42.620Z,11.00
2017-09-17T02:07:10.152Z,11.82
2017-09-17T02:09:38.452Z,10.90
2017-09-17T02:12:06.754Z,12.13
2017-09-17T02:14:34.282Z,10.95
2017-09-17T02:17:01.827Z,10.75
2017-09-17T02:19:30.124Z,10.25
2017-09-17T02:21:57.640Z,10.80
2017-09-17T02:24:25.181Z,11.18
2017-09-17T02:26:52.724Z,14.00
2017-09-17T02:29:20.240Z,13.45
2017-09-17T02:31:48.775Z,19.55
2017-09-17T02:34:16.289Z,17.50
2017-09-17T02:36:44.570Z,19.12
2017-09-17T02:39:12.879Z,19.35
2017-09-17T02:41:40.400Z,17.95
2017-09-17T02:44:07.995Z,17.70
2017-09-17T02:46:35.525Z,20.52
2017-09-17T02:49:03.796Z,22.48
2017-09-17T02:51:32.116Z,22.33
2017-09-17T02:53:59.665Z,19.23
2017-09-17T02:56:27.174Z,20.67
2017-09-17T02:58:54.694Z,20.08
2017-09-17T03:01:22.227Z,19.75
2017-09-17T03:03:49.755Z,19.40
2017-09-17T03:06:17.273Z,17.40
2017-09-17T03:08:44.817Z,17.90
2017-09-17T03:11:12.351Z,17.52
2017-09-17T03:13:40.648Z,15.85
2017-09-17T03:16:08.165Z,14.75
2017-09-17T03:18:35.665Z,17.08
2017-09-17T03:21:03.185Z,14.40
2017-09-17T03:23:30.746Z,12.93
2017-09-17T03:25:58.244Z,14.40
2017-09-17T03:28:25.757Z,14.00
2017-09-17T03:30:53.290Z,14.98
2017-09-17T03:33:20.821Z,14.32
2017-09-17T03:35:48.436Z,14.73
2017-09-17T03:38:15.979Z,15.65
2017-09-17T03:40:43.517Z,17.17
2017-09-17T03:43:11.046Z,16.10
2017-09-17T03:45:38.611Z,15.68
2017-09-17T03:48:06.137Z,15.07
2017-09-17T03:50:33.667Z,16.48
2017-09-17T03:53:01.208Z,16.45
2017-09-17T03:55:28.723Z,16.08
2017-09-17T03:57:57.022Z,16.35
2017-09-17T04:00:24.567Z,18.37
2017-09-17T04:02:52.083Z,17.55
2017-09-17T04:05:19.604Z,17.85
2017-09-17T04:07:47.159Z,18.98
2017-09-17T04:10:14.668Z,16.27
2017-09-17T04:12:42.164Z,16.95
2017-09-17T04:15:10.467Z,15.85
2017-09-17T04:17:37.995Z,16.10
2017-09-17T04:20:05.520Z,16.12
2017-09-17T04:22:33.075Z,18.30
2017-09-17T04:25:00.601Z,17.20
2017-09-17T04:27:28.105Z,16.17
2017-09-17T04:29:55.637Z,14.15
2017-09-17T04:32:23.137Z,16.50
2017-09-17T04:34:50.656Z,15.93
2017-09-17T04:37:18.194Z,16.33
2017-09-17T04:39:45.707Z,15.50
2017-09-17T04:42:13.217Z,14.93
2017-09-17T04:44:40.825Z,13.62
2017-09-17T04:47:08.335Z,13.38
2017-09-17T04:49:35.858Z,14.63
2017-09-17T04:52:04.167Z,12.90
2017-09-17T04:54:31.677Z,14.93
2017-09-17T04:56:59.249Z,14.40
2017-09-17T04:59:27.589Z,15.77
2017-09-17T05:01:55.121Z,13.65
2017-09-17T05:04:22.647Z,15.98
2017-09-17T05:06:50.948Z,14.68
2017-09-17T05:09:18.468Z,13.60
2017-09-17T05:11:46.764Z,11.98
2017-09-17T05:14:15.062Z,14.95
2017-09-17T05:16:42.574Z,12.18
2017-09-17T05:19:10.073Z,13.90
2017-09-17T05:21:37.619Z,11.90
2017-09-17T05:24:05.913Z,12.90
2017-09-17T05:26:33.448Z,13.35
2017-09-17T05:29:01.716Z,14.50
2017-09-17T05:31:30.033Z,13.10
2017-09-17T05:33:57.545Z,11.77
2017-09-17T05:36:25.068Z,13.05
2017-09-17T05:38:52.627Z,12.35
2017-09-17T05:41:20.151Z,12.07
2017-09-17T05:43:47.655Z,13.00
2017-09-17T05:46:15.192Z,13.85
2017-09-17T05:48:42.708Z,12.60
2017-09-17T05:51:10.989Z,12.10
2017-09-17T05:53:39.303Z,11.55
2017-09-17T05:56:06.816Z,13.10
2017-09-17T05:58:34.335Z,12.45
2017-09-17T06:01:01.862Z,10.35
2017-09-17T06:03:29.389Z,11.50
2017-09-17T06:05:57.684Z,12.70
2017-09-17T06:08:25.992Z,11.15
2017-09-17T06:10:53.507Z,12.30
2017-09-17T06:13:21.807Z,11.15
2017-09-17T06:15:49.328Z,11.00
2017-09-17T06:18:16.846Z,12.27
2017-09-17T06:20:44.378Z,11.00
2017-09-17T06:23:11.905Z,12.37
2017-09-17T06:25:39.439Z,11.05
2017-09-17T06:28:06.964Z,10.98
2017-09-17T06:30:34.516Z,10.18
2017-09-17T06:33:02.043Z,11.82
2017-09-17T06:35:29.568Z,11.27
2017-09-17T06:37:57.302Z,11.35
2017-09-17T06:40:24.829Z,11.23
2017-09-17T06:42:53.109Z,10.23
2017-09-17T06:45:21.441Z,10.75
2017-09-17T06:47:48.978Z,11.60
2017-09-17T06:50:16.507Z,10.73
2017-09-17T06:52:44.067Z,10.50
2017-09-17T06:55:11.582Z,9.55
2017-09-17T06:57:39.090Z,11.38
2017-09-17T07:00:07.405Z,10.75
2017-09-17T07:02:34.912Z,10.02
2017-09-17T07:05:03.192Z,11.77
2017-09-17T07:07:31.501Z,9.70
2017-09-17T07:09:59.032Z,10.35
2017-09-17T07:12:27.331Z,10.23
2017-09-17T07:14:54.909Z,10.57
2017-09-17T07:17:22.429Z,8.35
2017-09-17T07:19:50.710Z,7.95
2017-09-17T07:22:19.023Z,9.30
2017-09-17T07:24:46.569Z,9.02
2017-09-17T07:27:14.092Z,9.25
2017-09-17T07:29:42.397Z,8.70
2017-09-17T07:32:09.922Z,7.72
2017-09-17T07:34:38.225Z,7.60
2017-09-17T07:37:05.760Z,6.30
2017-09-17T07:39:33.269Z,7.37
2017-09-17T07:42:00.759Z,6.10
2017-09-17T07:44:28.286Z,5.40
2017-09-17T07:46:55.821Z,6.00
2017-09-17T07:49:23.321Z,5.10
2017-09-17T07:51:50.885Z,5.10
2017-09-17T07:54:18.398Z,5.10
2017-09-17T07:56:45.930Z,4.17
2017-09-17T07:59:14.315Z,4.37
2017-09-17T08:01:42.671Z,4.50
2017-09-17T08:04:10.198Z,4.10
2017-09-17T08:06:37.773Z,4.03
2017-09-17T08:09:05.997Z,3.80
2017-09-17T08:11:33.559Z,4.13
2017-09-17T08:14:01.396Z,4.80
2017-09-17T08:16:28.911Z,4.27
2017-09-17T08:18:56.432Z,4.10
2017-09-17T08:21:24.881Z,3.47
2017-09-17T08:23:52.490Z,4.10
2017-09-17T08:26:19.992Z,4.07
2017-09-17T08:28:47.563Z,3.23
2017-09-17T08:31:15.114Z,3.13
2017-09-17T08:33:42.627Z,3.47
2017-09-17T08:36:10.153Z,3.90
2017-09-17T08:38:37.653Z,2.83
2017-09-17T08:41:05.154Z,3.53
2017-09-17T08:43:32.718Z,3.47
2017-09-17T08:46:00.226Z,3.00
2017-09-17T08:48:27.724Z,2.70
2017-09-17T08:50:55.221Z,3.13
2017-09-17T08:53:23.519Z,2.50
2017-09-17T08:55:51.035Z,2.90
2017-09-17T08:58:18.528Z,2.33
2017-09-17T09:00:46.816Z,2.33
2017-09-17T09:03:14.321Z,2.30
2017-09-17T09:05:41.821Z,2.70
2017-09-17T09:08:09.361Z,2.53
2017-09-17T09:10:37.636Z,2.60
2017-09-17T09:13:05.147Z,2.43
2017-09-17T09:15:32.637Z,2.57
2017-09-17T09:18:00.143Z,2.17
2017-09-17T09:20:27.734Z,2.30
2017-09-17T09:22:55.281Z,2.07
2017-09-17T09:25:22.792Z,2.10
2017-09-17T09:27:51.310Z,2.07
2017-09-17T09:30:18.813Z,2.60
2017-09-17T09:32:46.376Z,1.90
2017-09-17T09:35:14.037Z,2.03
2017-09-17T09:37:41.556Z,1.63
2017-09-17T09:40:09.073Z,1.83
2017-09-17T09:42:37.349Z,2.03
2017-09-17T09:45:05.643Z,1.67
2017-09-17T09:47:33.188Z,1.57
2017-09-17T09:50:01.480Z,1.73
2017-09-17T09:52:29.038Z,1.90
2017-09-17T09:54:56.581Z,2.03
2017-09-17T09:59:58.888Z,1.97
2017-09-17T10:02:26.401Z,1.80
2017-09-17T10:04:54.589Z,1.80
2017-09-17T10:07:22.148Z,1.80
2017-09-17T10:09:49.692Z,1.70
2017-09-17T10:12:17.200Z,2.20
2017-09-17T10:14:44.720Z,1.80
2017-09-17T10:17:12.273Z,1.50
2017-09-17T10:19:39.789Z,1.70
2017-09-17T10:22:07.304Z,2.10
2017-09-17T10:24:34.834Z,1.77
2017-09-17T10:27:02.339Z,1.77
2017-09-17T10:29:30.630Z,1.80
2017-09-17T10:31:58.152Z,1.60
2017-09-17T10:34:25.653Z,1.50
2017-09-17T10:36:53.440Z,1.47
2017-09-17T10:39:20.968Z,1.97
2017-09-17T10:41:49.697Z,1.70
2017-09-17T10:44:17.441Z,1.47
2017-09-17T10:46:44.958Z,1.80
2017-09-17T10:49:13.225Z,1.87
2017-09-17T10:51:40.767Z,1.73
2017-09-17T10:54:08.294Z,1.57
2017-09-17T10:56:35.846Z,1.73
2017-09-17T10:59:03.632Z,1.83
2017-09-17T11:01:31.905Z,1.67
2017-09-17T11:03:59.496Z,1.43
2017-09-17T11:06:27.055Z,1.40
2017-09-17T11:08:55.044Z,1.83
2017-09-17T11:11:23.331Z,2.03
2017-09-17T11:13:50.891Z,1.97
2017-09-17T11:16:19.164Z,2.13
2017-09-17T11:18:47.434Z,1.50
2017-09-17T11:21:14.996Z,1.60
2017-09-17T11:23:43.284Z,1.87
2017-09-17T11:26:11.547Z,2.50
2017-09-17T11:28:39.868Z,2.57
2017-09-17T11:31:07.382Z,2.10
2017-09-17T11:33:35.652Z,2.20
2017-09-17T11:36:03.190Z,2.47
2017-09-17T11:38:30.676Z,1.80
2017-09-17T11:40:58.967Z,1.80
2017-09-17T11:43:27.246Z,1.80
2017-09-17T11:45:55.510Z,2.17
2017-09-17T11:48:23.085Z,1.70
2017-09-17T11:50:50.670Z,1.70
2017-09-17T11:53:18.180Z,1.60
2017-09-17T11:55:46.464Z,1.80
2017-09-17T11:58:14.756Z,1.70
2017-09-17T12:00:42.284Z,1.90
2017-09-17T12:03:09.777Z,2.50
2017-09-17T12:05:37.300Z,2.50
2017-09-17T12:08:04.828Z,2.53
2017-09-17T12:10:32.344Z,2.00
2017-09-17T12:13:00.652Z,2.30
2017-09-17T12:15:28.149Z,2.97
2017-09-17T12:17:56.227Z,2.40
2017-09-17T12:20:24.024Z,1.63
2017-09-17T12:22:51.547Z,2.00
2017-09-17T12:25:19.056Z,1.67
2017-09-17T12:27:46.628Z,1.50
2017-09-17T12:30:14.151Z,1.57
2017-09-17T12:32:42.428Z,1.93
2017-09-17T12:35:10.721Z,1.60
2017-09-17T12:37:38.209Z,1.47
2017-09-17T12:40:05.728Z,1.80
2017-09-17T12:42:33.261Z,1.90
2017-09-17T12:45:00.762Z,1.70
2017-09-17T12:47:28.266Z,1.83
2017-09-17T12:49:55.820Z,1.83
2017-09-17T12:52:23.339Z,1.80
2017-09-17T12:54:50.859Z,1.80
2017-09-17T12:57:19.159Z,1.80
2017-09-17T12:59:46.664Z,1.83
2017-09-17T13:02:14.957Z,2.63
2017-09-17T13:04:42.482Z,2.60
2017-09-17T13:07:10.004Z,2.43
2017-09-17T13:09:37.517Z,1.80
2017-09-17T13:12:05.779Z,2.50
2017-09-17T13:14:33.281Z,1.90
2017-09-17T13:17:00.785Z,2.70
2017-09-17T13:19:28.316Z,2.20
2017-09-17T13:21:55.831Z,2.00
2017-09-17T13:24:23.349Z,2.10
2017-09-17T13:26:50.870Z,2.20
2017-09-17T13:29:18.379Z,2.20
2017-09-17T13:31:45.899Z,2.07
2017-09-17T13:34:14.216Z,1.87
2017-09-17T13:36:41.717Z,1.90
2017-09-17T13:39:09.236Z,1.87
2017-09-17T13:41:36.792Z,1.87
2017-09-17T13:44:04.313Z,1.80
2017-09-17T13:46:32.591Z,1.70
2017-09-17T13:49:00.908Z,1.63
2017-09-17T13:51:28.431Z,2.10
2017-09-17T13:53:56.705Z,1.80
2017-09-17T13:56:24.997Z,1.73
2017-09-17T13:58:52.545Z,1.60
2017-09-17T14:01:20.815Z,1.50
2017-09-17T14:04:07.421Z,1.73
2017-09-17T14:09:41.662Z,1.80
2017-09-17T14:12:09.951Z,1.70
2017-09-17T14:14:37.452Z,1.40
2017-09-17T14:17:05.032Z,1.53
2017-09-17T14:19:32.539Z,1.40
2017-09-17T14:22:00.056Z,1.30
2017-09-17T14:24:28.389Z,2.00
2017-09-17T14:26:55.911Z,2.03
2017-09-17T14:29:24.191Z,2.40
2017-09-17T14:31:52.485Z,2.53
2017-09-17T14:34:19.997Z,1.97
2017-09-17T14:36:47.530Z,2.60
2017-09-17T14:39:15.064Z,2.50
2017-09-17T14:41:42.580Z,2.87
2017-09-17T14:44:11.269Z,2.70
2017-09-17T14:46:38.802Z,2.80
2017-09-17T14:49:07.273Z,2.90
2017-09-17T14:51:35.544Z,3.57
2017-09-17T14:54:03.101Z,3.37
2017-09-17T14:56:30.593Z,3.13
2017-09-17T14:58:58.129Z,3.17
2017-09-17T15:01:25.675Z,2.30
2017-09-17T15:03:53.168Z,2.40
2017-09-17T15:06:20.681Z,2.90
2017-09-17T15:08:48.248Z,3.63
2017-09-17T15:11:15.745Z,2.97
2017-09-17T15:13:43.258Z,2.87
2017-09-17T15:16:10.808Z,2.13
2017-09-17T15:18:38.316Z,3.23
2017-09-17T15:21:05.814Z,2.83
2017-09-17T15:23:34.123Z,3.10
2017-09-17T15:26:01.649Z,3.20
2017-09-17T15:28:29.920Z,3.47
2017-09-17T15:30:58.204Z,3.00
2017-09-17T15:33:26.468Z,2.30
2017-09-17T15:35:54.745Z,2.77
2017-09-17T15:38:23.067Z,2.47
2017-09-17T15:40:50.574Z,2.50
2017-09-17T15:43:18.091Z,2.17
2017-09-17T15:45:45.605Z,2.10
2017-09-17T15:48:13.874Z,1.93
2017-09-17T15:50:41.384Z,2.17
2017-09-17T15:53:08.912Z,1.60
2017-09-17T15:55:36.447Z,1.63
2017-09-17T15:58:04.752Z,1.87
2017-09-17T16:00:32.283Z,1.83
2017-09-17T16:02:59.789Z,1.90
2017-09-17T16:05:27.295Z,1.73
2017-09-17T16:07:54.855Z,1.80
2017-09-17T16:10:22.374Z,1.77
2017-09-17T16:12:49.896Z,1.93
2017-09-17T16:15:18.210Z,2.13
2017-09-17T16:17:45.724Z,2.20
2017-09-17T16:20:14.007Z,1.90
2017-09-17T16:22:41.571Z,2.23
2017-09-17T16:25:09.109Z,1.77
2017-09-17T16:27:36.623Z,2.10
2017-09-17T16:30:04.152Z,2.33
2017-09-17T16:32:31.649Z,2.20
2017-09-17T16:34:59.150Z,1.80
2017-09-17T16:37:27.493Z,1.80
2017-09-17T16:39:55.016Z,1.70
2017-09-17T16:42:22.524Z,2.13
2017-09-17T16:44:50.053Z,1.80
2017-09-17T16:47:17.572Z,1.90
2017-09-17T16:49:45.853Z,2.17
2017-09-17T16:52:14.165Z,2.60
2017-09-17T16:54:41.675Z,2.37
2017-09-17T16:57:09.976Z,2.80
2017-09-17T16:59:37.533Z,2.30
2017-09-17T17:02:05.127Z,2.53
2017-09-17T17:04:32.652Z,1.90
2017-09-17T17:07:00.154Z,2.40
2017-09-17T17:09:27.707Z,2.67
2017-09-17T17:11:55.225Z,2.87
2017-09-17T17:14:23.512Z,2.50
2017-09-17T17:16:51.092Z,2.60
2017-09-17T17:19:18.603Z,3.00
2017-09-17T17:21:46.888Z,2.70
2017-09-17T17:24:15.199Z,2.97
2017-09-17T17:26:42.733Z,3.20
2017-09-17T17:29:10.266Z,2.80
2017-09-17T17:31:37.808Z,3.00
2017-09-17T17:34:05.515Z,3.00
2017-09-17T17:36:33.009Z,3.90
2017-09-17T17:39:00.525Z,2.80
2017-09-17T17:41:28.810Z,3.77
2017-09-17T17:43:56.312Z,3.87
2017-09-17T17:46:23.860Z,3.60
2017-09-17T17:48:51.376Z,3.33
2017-09-17T17:51:19.676Z,3.73
2017-09-17T17:53:47.222Z,3.80
2017-09-17T17:56:14.749Z,4.10
2017-09-17T17:58:42.277Z,3.60
2017-09-17T18:01:09.827Z,3.50
2017-09-17T18:03:37.325Z,3.50
2017-09-17T18:06:04.825Z,3.20
2017-09-17T18:08:32.677Z,3.83
2017-09-17T18:11:00.268Z,3.50
2017-09-17T18:13:27.767Z,3.27
2017-09-17T18:15:55.300Z,3.73
2017-09-17T18:18:22.804Z,3.47
2017-09-17T18:20:51.109Z,3.53
2017-09-17T18:23:18.784Z,3.20
2017-09-17T18:25:46.331Z,2.87
2017-09-17T18:28:13.837Z,3.20
2017-09-17T18:30:41.372Z,3.13
2017-09-17T18:33:08.912Z,4.10
2017-09-17T18:35:37.061Z,3.50
2017-09-17T18:38:05.380Z,3.87
2017-09-17T18:40:32.897Z,4.13
2017-09-17T18:43:01.166Z,3.90
2017-09-17T18:45:29.485Z,3.80
2017-09-17T18:47:56.988Z,3.73
2017-09-17T18:50:30.164Z,4.20
2017-09-17T18:52:57.665Z,4.43
2017-09-17T18:55:25.944Z,4.20
2017-09-17T18:57:53.488Z,4.60
2017-09-17T19:00:21.791Z,4.30
2017-09-17T19:02:49.293Z,4.00
2017-09-17T19:05:16.832Z,4.60
2017-09-17T19:07:44.341Z,5.03
2017-09-17T19:10:12.631Z,5.00
2017-09-17T19:12:40.156Z,3.90
2017-09-17T19:15:07.680Z,4.33
2017-09-17T19:17:35.213Z,4.13
2017-09-17T19:20:02.746Z,4.50
2017-09-17T19:22:30.260Z,4.30
2017-09-17T19:24:57.773Z,4.90
2017-09-17T19:27:26.083Z,5.10
2017-09-17T19:29:53.617Z,4.53
2017-09-17T19:32:21.904Z,4.60
2017-09-17T19:34:49.441Z,4.83
2017-09-17T19:37:17.732Z,5.03
2017-09-17T19:39:45.263Z,4.80
2017-09-17T19:42:12.784Z,4.40
2017-09-17T19:44:40.286Z,4.50
2017-09-17T19:47:07.806Z,3.90
2017-09-17T19:49:35.361Z,3.97
2017-09-17T19:52:02.854Z,4.10
2017-09-17T19:54:30.380Z,4.37
2017-09-17T19:56:57.921Z,4.60
2017-09-17T19:59:25.432Z,4.60
2017-09-17T20:01:52.964Z,4.20
2017-09-17T20:04:20.580Z,4.70
2017-09-17T20:06:48.844Z,4.20
2017-09-17T20:09:17.133Z,4.00
2017-09-17T20:11:45.447Z,4.80
2017-09-17T20:14:12.973Z,4.13
2017-09-17T20:16:40.512Z,5.57
2017-09-17T20:19:08.096Z,5.07
2017-09-17T20:21:35.700Z,5.37
2017-09-17T20:24:03.244Z,6.60
2017-09-17T20:26:30.780Z,6.60
2017-09-17T20:28:58.300Z,7.40
2017-09-17T20:31:25.830Z,7.90
2017-09-17T20:33:53.427Z,8.00
2017-09-17T20:36:20.935Z,9.17
2017-09-17T20:38:48.469Z,8.30
2017-09-17T20:41:16.754Z,9.10
2017-09-17T20:43:44.279Z,9.13
2017-09-17T20:46:11.801Z,7.60
2017-09-17T20:48:39.326Z,8.33
2017-09-17T20:51:06.851Z,7.50
2017-09-17T20:53:34.406Z,7.00
2017-09-17T20:56:01.902Z,7.87
2017-09-17T20:58:29.406Z,7.10
2017-09-17T21:00:56.947Z,6.47
2017-09-17T21:03:24.445Z,7.97
2017-09-17T21:05:51.954Z,7.97
2017-09-17T21:08:19.503Z,7.43
2017-09-17T21:10:47.010Z,8.30
2017-09-17T21:13:14.515Z,7.03
2017-09-17T21:15:42.074Z,9.27
2017-09-17T21:18:09.577Z,6.77
2017-09-17T21:20:37.117Z,7.93
2017-09-17T21:23:04.656Z,7.93
2017-09-17T21:25:32.283Z,8.50
2017-09-17T21:27:59.815Z,7.83
2017-09-17T21:30:27.332Z,7.90
2017-09-17T21:32:54.851Z,9.00
2017-09-17T21:35:22.400Z,10.33
2017-09-17T21:37:49.906Z,8.03
2017-09-17T21:40:18.187Z,8.93
2017-09-17T21:42:45.749Z,9.30
2017-09-17T21:45:13.308Z,11.10
2017-09-17T21:47:40.837Z,9.87
2017-09-17T21:50:08.357Z,10.10
2017-09-17T21:52:35.865Z,11.10
2017-09-17T21:55:04.160Z,10.70
2017-09-17T21:57:31.701Z,12.73
2017-09-17T21:59:59.995Z,10.53
2017-09-17T22:02:27.503Z,11.07
2017-09-17T22:04:55.055Z,11.40
2017-09-17T22:07:22.575Z,12.27
2017-09-17T22:09:50.096Z,10.67
2017-09-17T22:12:17.647Z,10.47
2017-09-17T22:14:45.165Z,11.40
2017-09-17T22:17:12.685Z,10.13
2017-09-17T22:19:41.007Z,9.67
2017-09-17T22:22:08.530Z,9.87
2017-09-17T22:24:36.831Z,9.33
2017-09-17T22:27:04.397Z,11.07
2017-09-17T22:29:31.908Z,11.57
2017-09-17T22:32:00.203Z,9.95
2017-09-17T22:34:28.520Z,10.03
2017-09-17T22:36:56.027Z,10.27
2017-09-17T22:39:23.548Z,10.20
2017-09-17T22:41:51.064Z,9.50
2017-09-17T22:44:19.360Z,10.00
2017-09-17T22:46:46.888Z,8.90
2017-09-17T22:49:15.192Z,9.00
2017-09-17T22:51:42.724Z,10.25
2017-09-17T22:54:11.088Z,8.30
2017-09-17T22:56:39.404Z,8.48
2017-09-17T22:59:06.932Z,7.27
2017-09-17T23:01:35.227Z,8.75
2017-09-17T23:04:02.792Z,7.20
2017-09-17T23:06:30.301Z,6.82
2017-09-17T23:08:57.827Z,7.40
2017-09-17T23:11:25.364Z,6.93
2017-09-17T23:13:52.895Z,8.43
2017-09-17T23:16:20.425Z,7.35
2017-09-17T23:18:47.967Z,7.93
2017-09-17T23:21:15.485Z,8.90
2017-09-17T23:23:43.779Z,9.60
2017-09-17T23:26:11.330Z,9.30
2017-09-17T23:28:39.605Z,10.68
2017-09-17T23:31:07.895Z,10.65
2017-09-17T23:33:35.444Z,11.68
2017-09-17T23:36:03.728Z,11.77
2017-09-17T23:38:31.280Z,13.20
2017-09-17T23:40:59.573Z,13.57
2017-09-17T23:43:27.082Z,13.98
2017-09-17T23:45:54.616Z,14.02
2017-09-17T23:48:22.177Z,14.40
2017-09-17T23:50:49.704Z,14.65
2017-09-17T23:53:17.233Z,15.40
2017-09-17T23:55:44.795Z,18.27
2017-09-17T23:58:12.333Z,16.50
